Time;durP1;ratioP1;P1;durP2;ratioP2;P2;SDS_P1;SDS_P2;PMS_P1;PMS_P2;Temp;Humidity;BMP_temperature;BMP_pressure;BME280_temperature;BME280_humidity;BME280_pressure;Samples;Min_cycle;Max_cycle;Signal;HPM_P1;HPM_P2
2021/11/29 00:00:32;;;;;;;13.40;6.57;;;2.90;99.90;;;;;;5001083;28;20065;-85
2021/11/29 00:03:03;;;;;;;12.00;7.20;;;2.80;99.90;;;;;;5016942;28;20029;-84
2021/11/29 00:05:29;;;;;;;13.37;6.60;;;2.80;99.90;;;;;;5000518;28;20108;-85
2021/11/29 00:07:57;;;;;;;13.20;6.03;;;2.90;99.90;;;;;;5000402;28;20394;-85
2021/11/29 00:10:22;;;;;;;9.07;5.50;;;3.00;99.90;;;;;;5000763;28;20084;-85
2021/11/29 00:12:48;;;;;;;9.73;6.27;;;3.00;99.90;;;;;;5000336;28;20486;-85
2021/11/29 00:15:15;;;;;;;12.53;6.23;;;3.00;99.90;;;;;;5016483;28;20394;-85
2021/11/29 00:17:41;;;;;;;13.63;6.10;;;3.10;99.90;;;;;;5000021;28;20037;-85
2021/11/29 00:20:10;;;;;;;8.67;5.07;;;3.10;99.90;;;;;;5000085;28;20040;-85
2021/11/29 00:22:36;;;;;;;10.40;5.25;;;3.10;99.90;;;;;;5016656;28;20025;-85
2021/11/29 00:25:03;;;;;;;9.60;5.70;;;3.10;99.90;;;;;;5016996;28;20083;-85
2021/11/29 00:27:28;;;;;;;11.20;5.60;;;3.20;99.90;;;;;;4999947;28;20036;-86
2021/11/29 00:29:55;;;;;;;12.17;5.83;;;3.10;99.90;;;;;;5000469;28;20039;-84
2021/11/29 00:32:21;;;;;;;10.47;4.60;;;3.10;99.90;;;;;;5000462;28;20466;-85
2021/11/29 00:34:46;;;;;;;10.23;5.10;;;3.10;99.90;;;;;;5016710;28;20044;-85
2021/11/29 00:37:12;;;;;;;10.40;5.47;;;3.20;99.90;;;;;;5001274;28;20029;-86
2021/11/29 00:39:38;;;;;;;10.57;5.33;;;3.10;99.90;;;;;;5000916;28;20375;-85
2021/11/29 00:42:04;;;;;;;9.00;5.13;;;3.10;99.90;;;;;;5001656;28;20025;-85
2021/11/29 00:44:30;;;;;;;11.30;5.60;;;3.10;99.90;;;;;;5017671;28;20034;-85
2021/11/29 00:46:56;;;;;;;12.37;5.07;;;3.10;99.90;;;;;;5017567;28;20048;-85
2021/11/29 00:49:22;;;;;;;8.27;4.80;;;3.10;99.90;;;;;;5016141;28;20037;-85
2021/11/29 00:51:48;;;;;;;8.70;4.77;;;3.00;99.90;;;;;;5016181;28;20076;-85
2021/11/29 00:54:14;;;;;;;13.83;5.90;;;3.10;99.90;;;;;;5000191;28;20489;-85
2021/11/29 00:56:40;;;;;;;20.37;7.97;;;3.10;99.90;;;;;;5000257;28;20504;-85
2021/11/29 00:59:08;;;;;;;24.77;8.60;;;3.10;99.90;;;;;;5016278;28;20116;-85
2021/11/29 01:01:34;;;;;;;24.17;9.53;;;3.20;99.90;;;;;;5000628;28;20356;-85
2021/11/29 01:04:00;;;;;;;24.77;8.43;;;3.20;99.90;;;;;;5000719;28;20022;-85
2021/11/29 01:06:26;;;;;;;22.37;7.90;;;3.20;99.90;;;;;;5020794;28;20021;-84
2021/11/29 01:08:52;;;;;;;16.30;6.80;;;3.10;99.90;;;;;;5021165;28;20394;-85
2021/11/29 01:11:18;;;;;;;18.43;6.27;;;3.10;99.90;;;;;;5016740;28;20052;-86
2021/11/29 01:13:43;;;;;;;15.43;6.33;;;3.10;99.90;;;;;;5004867;28;20557;-85
2021/11/29 01:16:09;;;;;;;13.97;6.13;;;3.10;99.90;;;;;;5012427;28;20033;-85
2021/11/29 01:18:35;;;;;;;15.47;5.90;;;3.00;99.90;;;;;;5002096;28;20030;-86
2021/11/29 01:21:01;;;;;;;15.30;6.20;;;3.00;99.90;;;;;;5000216;28;20029;-85
2021/11/29 01:23:27;;;;;;;18.17;6.90;;;3.10;99.90;;;;;;4999995;28;20426;-85
2021/11/29 01:25:54;;;;;;;20.80;7.70;;;3.10;99.90;;;;;;4999443;28;20148;-85
2021/11/29 01:28:21;;;;;;;22.83;8.00;;;3.10;99.90;;;;;;4999571;28;20029;-85
2021/11/29 01:30:47;;;;;;;20.07;8.90;;;3.10;99.90;;;;;;4999674;28;20391;-85
2021/11/29 01:33:14;;;;;;;30.63;9.10;;;3.10;99.90;;;;;;5016390;28;20576;-85
2021/11/29 01:35:39;;;;;;;24.20;9.50;;;3.10;99.90;;;;;;5016131;28;20413;-85
2021/11/29 01:38:05;;;;;;;26.60;8.60;;;3.10;99.90;;;;;;5000164;28;20030;-85
2021/11/29 01:40:32;;;;;;;21.93;7.97;;;3.00;99.90;;;;;;5016310;28;20546;-85
2021/11/29 01:43:03;;;;;;;20.00;7.43;;;3.00;99.90;;;;;;5016033;28;20053;-86
2021/11/29 01:45:33;;;;;;;23.97;8.13;;;3.00;99.90;;;;;;4999573;28;20516;-85
2021/11/29 01:47:59;;;;;;;18.47;7.87;;;3.00;99.90;;;;;;5015688;28;20444;-85
2021/11/29 01:50:25;;;;;;;16.67;6.10;;;3.00;99.90;;;;;;4999659;28;20445;-85
2021/11/29 01:52:52;;;;;;;17.33;6.43;;;3.00;99.90;;;;;;4999893;28;20037;-85
2021/11/29 01:55:19;;;;;;;15.33;6.27;;;2.90;99.90;;;;;;4999534;28;20125;-85
2021/11/29 01:57:46;;;;;;;13.90;5.93;;;3.00;99.90;;;;;;4999547;28;20040;-85
2021/11/29 02:00:17;;;;;;;21.20;8.03;;;3.00;99.90;;;;;;4999690;28;20033;-85
2021/11/29 02:02:44;;;;;;;18.37;7.10;;;3.00;99.90;;;;;;5016016;28;20033;-86
2021/11/29 02:05:09;;;;;;;15.20;5.53;;;3.00;99.90;;;;;;4999776;28;20036;-86
2021/11/29 02:07:35;;;;;;;12.17;4.80;;;3.00;99.90;;;;;;4999093;28;20302;-86
2021/11/29 02:10:01;;;;;;;12.47;5.37;;;2.90;99.90;;;;;;4999941;28;20084;-86
2021/11/29 02:12:27;;;;;;;8.80;4.33;;;2.90;99.90;;;;;;5015702;28;20432;-86
2021/11/29 02:14:53;;;;;;;8.67;4.20;;;2.80;99.90;;;;;;4999903;28;20041;-86
2021/11/29 02:17:18;;;;;;;8.50;4.00;;;2.80;99.90;;;;;;5000109;28;20040;-85
2021/11/29 02:19:46;;;;;;;8.97;3.80;;;2.80;99.90;;;;;;4999261;28;20037;-85
2021/11/29 02:22:13;;;;;;;12.40;5.00;;;2.80;99.90;;;;;;5016324;28;20014;-85
2021/11/29 02:24:40;;;;;;;12.50;5.40;;;2.80;99.90;;;;;;4999344;28;20033;-86
2021/11/29 02:27:06;;;;;;;7.43;3.80;;;2.80;99.90;;;;;;4999038;28;20056;-85
2021/11/29 02:29:34;;;;;;;10.07;3.93;;;2.80;99.90;;;;;;4998962;28;20131;-85
2021/11/29 02:32:00;;;;;;;11.47;5.20;;;2.80;99.90;;;;;;5033346;28;20059;-86
2021/11/29 02:34:29;;;;;;;11.43;4.10;;;2.80;99.90;;;;;;5016347;28;20033;-86
2021/11/29 02:36:58;;;;;;;11.77;4.57;;;2.80;99.90;;;;;;5000188;28;20389;-85
2021/11/29 02:39:24;;;;;;;11.38;4.43;;;2.80;99.90;;;;;;5002711;28;20029;-85
2021/11/29 02:41:52;;;;;;;13.93;4.87;;;2.70;99.90;;;;;;5019447;28;20065;-86
2021/11/29 02:44:18;;;;;;;15.07;4.90;;;2.80;99.90;;;;;;5019243;28;20037;-86
2021/11/29 02:46:44;;;;;;;10.13;4.53;;;2.80;99.90;;;;;;5003250;28;20036;-85
2021/11/29 02:49:13;;;;;;;10.03;4.10;;;2.80;99.90;;;;;;5018844;28;20021;-86
2021/11/29 02:51:48;;;;;;;10.23;3.97;;;2.80;99.90;;;;;;5002823;28;20079;-85
2021/11/29 02:54:29;;;;;;;9.07;3.53;;;2.80;99.90;;;;;;5002021;28;20440;-85
2021/11/29 02:56:58;;;;;;;8.57;3.53;;;2.80;99.90;;;;;;5018649;28;20076;-85
2021/11/29 02:59:30;;;;;;;9.70;3.40;;;2.80;99.90;;;;;;5018120;28;20087;-85
2021/11/29 03:01:59;;;;;;;6.00;3.40;;;2.80;99.90;;;;;;5002386;28;20064;-85
2021/11/29 03:04:26;;;;;;;;;;;2.80;99.90;;;;;;5002894;28;20040;-84
2021/11/29 03:06:52;;;;;;;9.07;4.23;;;2.70;99.90;;;;;;5002179;28;20340;-85
2021/11/29 03:09:19;;;;;;;10.07;3.40;;;2.70;99.90;;;;;;5001935;28;20041;-85
2021/11/29 03:11:46;;;;;;;5.67;3.17;;;2.80;99.90;;;;;;5002275;28;20030;-85
2021/11/29 03:14:12;;;;;;;6.53;3.50;;;2.80;99.90;;;;;;5018140;28;20540;-85
2021/11/29 03:16:38;;;;;;;7.60;3.20;;;2.70;99.90;;;;;;5002140;28;20041;-86
2021/11/29 03:19:04;;;;;;;6.50;3.30;;;2.70;99.90;;;;;;5017488;28;20048;-85
2021/11/29 03:21:30;;;;;;;6.97;3.53;;;2.70;99.90;;;;;;5001494;28;20029;-85
2021/11/29 03:23:59;;;;;;;8.23;3.63;;;2.70;99.90;;;;;;5001664;28;20029;-85
2021/11/29 03:26:27;;;;;;;6.95;3.17;;;2.70;99.90;;;;;;5001838;28;20029;-86
2021/11/29 03:28:56;;;;;;;7.30;3.57;;;2.60;99.90;;;;;;5017324;28;20029;-86
2021/11/29 03:31:24;;;;;;;5.70;2.97;;;2.60;99.90;;;;;;5001418;28;20029;-85
2021/11/29 03:33:51;;;;;;;10.23;3.37;;;2.70;99.90;;;;;;5018225;28;20117;-86
2021/11/29 03:36:17;;;;;;;9.33;4.47;;;2.60;99.90;;;;;;5001350;28;20021;-86
2021/11/29 03:38:43;;;;;;;8.03;4.50;;;2.60;99.90;;;;;;5017194;28;20072;-85
2021/11/29 03:41:09;;;;;;;9.57;3.50;;;2.60;99.90;;;;;;5001765;28;20034;-85
2021/11/29 03:43:35;;;;;;;8.90;3.53;;;2.70;99.90;;;;;;5001009;28;20036;-85
2021/11/29 03:46:00;;;;;;;8.97;3.60;;;2.60;99.90;;;;;;5000894;28;20033;-85
2021/11/29 03:48:26;;;;;;;6.60;2.97;;;2.60;99.90;;;;;;5000237;28;20422;-85
2021/11/29 03:50:53;;;;;;;8.27;3.03;;;2.60;99.90;;;;;;5017050;28;20037;-86
2021/11/29 03:53:18;;;;;;;11.93;3.57;;;2.60;99.90;;;;;;5000791;28;20479;-85
2021/11/29 03:55:44;;;;;;;7.77;3.20;;;2.60;99.90;;;;;;5001037;28;20045;-85
2021/11/29 03:58:10;;;;;;;4.50;2.47;;;2.60;99.90;;;;;;4999297;28;20490;-85
2021/11/29 04:00:37;;;;;;;5.70;2.50;;;2.60;99.90;;;;;;4999379;28;20030;-85
2021/11/29 04:03:03;;;;;;;6.67;3.00;;;2.60;99.90;;;;;;4999297;28;20033;-85
2021/11/29 04:05:29;;;;;;;6.07;2.30;;;2.60;99.90;;;;;;4999507;28;20476;-85
2021/11/29 04:07:55;;;;;;;5.33;2.67;;;2.60;99.90;;;;;;5015413;28;20124;-85
2021/11/29 04:10:21;;;;;;;7.07;2.90;;;2.70;99.90;;;;;;4999343;28;20428;-85
2021/11/29 04:12:47;;;;;;;6.30;2.30;;;2.70;99.90;;;;;;4999338;28;20029;-85
2021/11/29 04:15:13;;;;;;;7.13;2.93;;;2.80;99.90;;;;;;5015578;28;20079;-85
2021/11/29 04:17:40;;;;;;;8.40;2.90;;;2.80;99.90;;;;;;4998681;28;20029;-84
2021/11/29 04:20:09;;;;;;;10.10;3.13;;;2.70;99.90;;;;;;4998709;28;20481;-85
2021/11/29 04:22:36;;;;;;;5.40;2.47;;;2.70;99.90;;;;;;5015731;28;20480;-85
2021/11/29 04:25:07;;;;;;;10.83;3.10;;;2.70;99.90;;;;;;5015441;28;20170;-85
2021/11/29 04:27:34;;;;;;;9.60;2.57;;;2.70;99.90;;;;;;5015182;28;20056;-85
2021/11/29 04:30:05;;;;;;;7.83;2.90;;;2.60;99.90;;;;;;4999050;28;20087;-84
2021/11/29 04:32:31;;;;;;;10.40;3.57;;;2.60;99.90;;;;;;5015363;28;20060;-85
2021/11/29 04:34:57;;;;;;;12.60;4.83;;;2.70;99.90;;;;;;4998889;28;20041;-85
2021/11/29 04:37:23;;;;;;;13.60;5.10;;;2.70;99.90;;;;;;5015483;28;20490;-85
2021/11/29 04:39:49;;;;;;;23.67;7.50;;;2.70;99.90;;;;;;5014607;28;20037;-85
2021/11/29 04:42:15;;;;;;;17.97;7.00;;;2.70;99.90;;;;;;5015036;28;20052;-85
2021/11/29 04:44:41;;;;;;;16.87;5.80;;;2.80;99.90;;;;;;5015220;28;20545;-85
2021/11/29 04:47:07;;;;;;;9.93;4.17;;;2.80;99.90;;;;;;5015129;28;20026;-85
2021/11/29 04:49:33;;;;;;;6.07;2.90;;;2.80;99.90;;;;;;5014578;28;20512;-85
2021/11/29 04:52:00;;;;;;;6.17;2.30;;;2.80;99.90;;;;;;5014947;28;20029;-85
2021/11/29 04:54:25;;;;;;;7.20;2.37;;;2.80;99.90;;;;;;5000206;28;20041;-85
2021/11/29 04:56:51;;;;;;;4.80;1.90;;;2.80;99.90;;;;;;5000768;28;20128;-85
2021/11/29 04:59:17;;;;;;;3.07;1.73;;;2.80;99.90;;;;;;5015387;28;20037;-86
2021/11/29 05:01:43;;;;;;;5.50;1.70;;;2.80;99.90;;;;;;4999491;28;20029;-85
2021/11/29 05:04:10;;;;;;;4.63;1.80;;;2.80;99.90;;;;;;5016354;28;20079;-85
2021/11/29 05:06:37;;;;;;;4.97;1.70;;;2.70;99.90;;;;;;4999216;28;20036;-85
2021/11/29 05:09:05;;;;;;;5.03;1.90;;;2.70;99.90;;;;;;5015438;28;20029;-85
2021/11/29 05:11:31;;;;;;;4.50;1.93;;;2.70;99.90;;;;;;5016039;28;20018;-85
2021/11/29 05:13:57;;;;;;;5.73;1.90;;;2.70;99.90;;;;;;5015618;28;20037;-85
2021/11/29 05:16:23;;;;;;;5.07;1.70;;;2.70;99.90;;;;;;5016125;28;20025;-84
2021/11/29 05:18:49;;;;;;;4.87;1.97;;;2.80;99.90;;;;;;4999483;28;20200;-85
2021/11/29 05:21:14;;;;;;;4.43;1.80;;;2.80;99.90;;;;;;5016176;28;20037;-85
2021/11/29 05:23:41;;;;;;;3.33;1.63;;;2.80;99.90;;;;;;5000157;28;20036;-85
2021/11/29 05:26:10;;;;;;;3.27;1.70;;;2.80;99.90;;;;;;5000162;28;20033;-85
2021/11/29 05:28:35;;;;;;;4.60;1.90;;;2.80;99.90;;;;;;5017312;28;20044;-85
2021/11/29 05:31:01;;;;;;;6.00;1.90;;;2.80;99.90;;;;;;5001266;28;20042;-84
2021/11/29 05:33:27;;;;;;;4.90;2.07;;;2.80;99.90;;;;;;5001122;28;20505;-85
2021/11/29 05:35:53;;;;;;;3.87;1.80;;;2.80;99.90;;;;;;5003674;28;20425;-86
2021/11/29 05:38:18;;;;;;;6.20;1.90;;;2.90;99.90;;;;;;5037830;28;20029;-86
2021/11/29 05:40:44;;;;;;;3.57;1.90;;;2.80;99.90;;;;;;5004836;28;20033;-85
2021/11/29 05:43:10;;;;;;;4.77;1.93;;;2.80;99.90;;;;;;5005378;28;20364;-85
2021/11/29 05:45:40;;;;;;;2.83;1.53;;;2.80;99.90;;;;;;5001614;28;20030;-85
2021/11/29 05:48:06;;;;;;;4.00;1.90;;;2.90;99.90;;;;;;5001814;28;20025;-85
2021/11/29 05:50:32;;;;;;;5.00;2.00;;;2.80;99.90;;;;;;5001529;28;20541;-85
2021/11/29 05:52:58;;;;;;;5.73;2.10;;;2.90;99.90;;;;;;5017953;28;20034;-85
2021/11/29 05:55:24;;;;;;;6.10;2.10;;;2.90;99.90;;;;;;5001567;28;20512;-85
2021/11/29 05:57:49;;;;;;;4.93;1.80;;;2.90;99.90;;;;;;5001159;28;20535;-85
2021/11/29 06:00:17;;;;;;;5.80;2.10;;;2.90;99.90;;;;;;5017414;28;20030;-85
2021/11/29 06:02:43;;;;;;;6.00;1.80;;;2.90;99.90;;;;;;5001836;28;20113;-86
2021/11/29 06:05:11;;;;;;;6.93;2.10;;;2.80;99.90;;;;;;5018768;28;20030;-85
2021/11/29 06:07:37;;;;;;;4.23;1.70;;;2.90;99.90;;;;;;5001177;28;20025;-85
2021/11/29 06:10:04;;;;;;;5.10;1.67;;;3.00;99.90;;;;;;5017992;28;20417;-85
2021/11/29 06:12:30;;;;;;;2.77;1.60;;;3.00;99.90;;;;;;5002728;28;20033;-86
2021/11/29 06:14:56;;;;;;;4.53;1.80;;;3.00;99.90;;;;;;5004673;28;20112;-84
2021/11/29 06:17:22;;;;;;;5.87;2.23;;;3.00;99.90;;;;;;5004332;28;20163;-85
2021/11/29 06:19:47;;;;;;;4.53;1.90;;;3.00;99.90;;;;;;5003643;28;20033;-85
2021/11/29 06:22:13;;;;;;;3.70;1.73;;;3.00;99.90;;;;;;5004170;28;20099;-85
2021/11/29 06:24:39;;;;;;;3.00;1.60;;;3.00;99.90;;;;;;5022303;28;20144;-85
2021/11/29 06:27:05;;;;;;;2.63;1.63;;;3.00;99.90;;;;;;5006556;28;20506;-86
2021/11/29 06:29:30;;;;;;;2.93;1.83;;;3.10;99.90;;;;;;5023020;28;20029;-85
2021/11/29 06:31:56;;;;;;;4.00;1.60;;;3.10;99.90;;;;;;5041800;28;20036;-84
2021/11/29 06:34:25;;;;;;;10.87;5.47;;;3.10;99.90;;;;;;5008013;28;20486;-84
2021/11/29 06:36:52;;;;;;;8.90;3.33;;;3.20;99.90;;;;;;5006848;28;20371;-85
2021/11/29 06:39:20;;;;;;;4.43;1.73;;;3.20;99.90;;;;;;5006841;28;20048;-85
2021/11/29 06:41:46;;;;;;;4.60;2.00;;;3.10;99.90;;;;;;5023511;28;20028;-85
2021/11/29 06:44:12;;;;;;;6.13;2.27;;;3.20;99.90;;;;;;5006723;28;20416;-85
2021/11/29 06:46:37;;;;;;;3.67;1.77;;;3.20;99.90;;;;;;5008075;28;20125;-86
2021/11/29 06:49:03;;;;;;;3.50;1.73;;;3.20;99.90;;;;;;5007120;28;20029;-84
2021/11/29 06:51:30;;;;;;;14.13;6.53;;;3.20;99.90;;;;;;5023550;28;20041;-85
2021/11/29 06:53:55;;;;;;;7.77;4.27;;;3.20;99.90;;;;;;5023363;28;20039;-86
2021/11/29 06:56:21;;;;;;;5.70;2.00;;;3.20;99.90;;;;;;5041861;28;20473;-86
2021/11/29 06:58:47;;;;;;;4.43;1.80;;;3.20;99.90;;;;;;5007466;28;20510;-86
2021/11/29 07:01:13;;;;;;;5.80;1.90;;;3.20;99.90;;;;;;5008085;28;20037;-85
2021/11/29 07:03:39;;;;;;;5.03;2.00;;;3.20;99.90;;;;;;5006806;28;20120;-85
2021/11/29 07:06:05;;;;;;;3.47;1.60;;;3.20;99.90;;;;;;5023421;28;20061;-86
2021/11/29 07:08:31;;;;;;;6.97;2.20;;;3.20;99.90;;;;;;5023279;28;20083;-85
2021/11/29 07:10:58;;;;;;;4.03;2.17;;;3.20;99.90;;;;;;5007906;28;20033;-86
2021/11/29 07:13:24;;;;;;;4.50;2.03;;;3.20;99.90;;;;;;5008556;28;20113;-86
2021/11/29 07:15:50;;;;;;;5.40;2.30;;;3.20;99.90;;;;;;5009243;28;20427;-85
2021/11/29 07:18:16;;;;;;;4.50;2.03;;;3.20;99.90;;;;;;5009994;28;20029;-85
2021/11/29 07:20:43;;;;;;;4.80;1.97;;;3.20;99.90;;;;;;5025571;28;20036;-85
2021/11/29 07:23:09;;;;;;;4.70;1.97;;;3.20;99.90;;;;;;5025104;28;20127;-86
2021/11/29 07:25:34;;;;;;;2.87;1.70;;;3.20;99.90;;;;;;5009366;28;20065;-87
2021/11/29 07:28:00;;;;;;;7.07;2.13;;;3.20;99.90;;;;;;5025988;28;20397;-85
2021/11/29 07:30:27;;;;;;;4.63;1.93;;;3.20;99.90;;;;;;5009696;28;20041;-86
2021/11/29 07:32:54;;;;;;;4.60;1.90;;;3.20;99.90;;;;;;5011420;28;20049;-87
2021/11/29 07:35:26;;;;;;;4.67;2.27;;;3.20;99.90;;;;;;5014109;28;20029;-85
2021/11/29 07:37:52;;;;;;;7.17;2.20;;;3.20;99.90;;;;;;5011983;28;20034;-85
2021/11/29 07:40:19;;;;;;;4.63;2.20;;;3.20;99.90;;;;;;5012625;28;20037;-86
2021/11/29 07:42:45;;;;;;;5.13;2.07;;;3.20;99.90;;;;;;5049752;28;20273;-85
2021/11/29 07:45:12;;;;;;;6.00;2.20;;;3.20;99.90;;;;;;5015025;28;20021;-85
2021/11/29 07:47:40;;;;;;;7.07;2.40;;;3.20;99.90;;;;;;5013894;28;20509;-85
2021/11/29 07:50:10;;;;;;;6.80;2.57;;;3.20;99.90;;;;;;5013706;28;20040;-87
2021/11/29 07:52:36;;;;;;;5.63;2.20;;;3.20;99.90;;;;;;5012811;28;20036;-85
2021/11/29 07:55:07;;;;;;;5.17;2.30;;;3.20;99.90;;;;;;5013366;28;20097;-86
2021/11/29 07:57:33;;;;;;;5.53;2.40;;;3.20;99.90;;;;;;5012677;28;20034;-86
2021/11/29 08:00:02;;;;;;;7.23;2.30;;;3.10;99.90;;;;;;5046620;28;20026;-85
2021/11/29 08:02:30;;;;;;;5.60;2.50;;;3.20;99.90;;;;;;5028882;28;20036;-85
2021/11/29 08:04:56;;;;;;;4.87;2.17;;;3.10;99.90;;;;;;5029384;28;20026;-86
2021/11/29 08:07:21;;;;;;;4.07;2.27;;;3.20;99.90;;;;;;5028566;28;20029;-86
2021/11/29 08:09:47;;;;;;;5.47;2.13;;;3.10;99.90;;;;;;5046157;28;20033;-86
2021/11/29 08:12:13;;;;;;;4.57;1.97;;;3.10;99.90;;;;;;5009467;28;20379;-85
2021/11/29 08:14:39;;;;;;;6.27;2.40;;;3.20;99.90;;;;;;5010473;28;20067;-85
2021/11/29 08:17:06;;;;;;;7.70;2.13;;;3.20;99.90;;;;;;5010431;28;20037;-87
2021/11/29 08:19:32;;;;;;;3.70;2.10;;;3.30;99.90;;;;;;5008624;28;20029;-87
2021/11/29 08:21:57;;;;;;;6.50;2.50;;;3.30;99.90;;;;;;5015947;28;20427;-86
2021/11/29 08:24:23;;;;;;;6.57;2.33;;;3.60;99.90;;;;;;5020719;28;20025;-86
2021/11/29 08:26:49;;;;;;;7.67;2.17;;;3.60;99.90;;;;;;5020740;28;20033;-86
2021/11/29 08:29:15;;;;;;;3.83;2.00;;;3.50;99.90;;;;;;4999556;28;20029;-87
2021/11/29 08:31:41;;;;;;;5.17;2.10;;;3.70;99.90;;;;;;5015103;28;20040;-86
2021/11/29 08:34:08;;;;;;;5.87;1.93;;;3.80;99.90;;;;;;4979647;28;20026;-90
2021/11/29 08:36:35;;;;;;;5.37;1.93;;;3.80;99.90;;;;;;4979928;28;20036;-86
2021/11/29 08:39:03;;;;;;;7.23;2.10;;;3.80;99.90;;;;;;4979744;28;20071;-87
2021/11/29 08:41:30;;;;;;;9.70;2.30;;;3.80;99.90;;;;;;4980560;28;20053;-83
2021/11/29 08:43:56;;;;;;;3.53;1.80;;;3.90;99.90;;;;;;4996412;28;20108;-86
2021/11/29 08:46:23;;;;;;;5.27;1.80;;;3.90;99.90;;;;;;4997876;28;20462;-85
2021/11/29 08:48:49;;;;;;;3.93;1.77;;;3.90;99.90;;;;;;4982150;28;20033;-85
2021/11/29 08:51:16;;;;;;;5.00;2.20;;;3.90;99.90;;;;;;4981940;28;20036;-86
2021/11/29 08:53:43;;;;;;;4.57;1.90;;;3.80;99.90;;;;;;5015248;28;20410;-85
2021/11/29 08:56:09;;;;;;;3.87;1.80;;;3.80;99.90;;;;;;5016208;28;20037;-86
2021/11/29 08:58:35;;;;;;;6.23;2.00;;;3.70;99.90;;;;;;4983305;28;20419;-86
2021/11/29 09:01:02;;;;;;;3.50;1.90;;;3.60;99.90;;;;;;4981927;28;20044;-85
2021/11/29 09:03:28;;;;;;;5.67;1.83;;;3.60;99.90;;;;;;4979348;28;20037;-87
2021/11/29 09:05:54;;;;;;;4.57;1.60;;;3.60;99.90;;;;;;4994376;28;20068;-86
2021/11/29 09:08:20;;;;;;;5.17;2.20;;;3.60;99.90;;;;;;4979177;28;20402;-87
2021/11/29 09:10:47;;;;;;;5.97;1.93;;;3.60;99.90;;;;;;4995397;28;20032;-87
2021/11/29 09:13:13;;;;;;;8.27;2.10;;;3.60;99.90;;;;;;4979193;28;20041;-86
2021/11/29 09:15:41;;;;;;;4.87;1.93;;;3.60;99.90;;;;;;4979055;28;20050;-87
2021/11/29 09:18:08;;;;;;;7.50;2.27;;;3.60;99.90;;;;;;4979016;28;20034;-86
2021/11/29 09:20:34;;;;;;;8.03;2.50;;;3.60;99.90;;;;;;4979097;28;20033;-86
2021/11/29 09:23:02;;;;;;;9.30;2.33;;;3.60;99.90;;;;;;4979186;28;20410;-86
2021/11/29 09:25:28;;;;;;;8.57;2.80;;;3.60;99.90;;;;;;4979189;28;20065;-86
2021/11/29 09:27:54;;;;;;;6.23;2.70;;;3.60;99.90;;;;;;4979043;28;20317;-86
2021/11/29 09:30:20;;;;;;;7.83;2.23;;;3.60;99.90;;;;;;4979328;28;20064;-86
2021/11/29 09:32:46;;;;;;;6.20;2.70;;;3.60;99.90;;;;;;4978912;28;20034;-86
2021/11/29 09:35:15;;;;;;;9.67;2.60;;;3.50;99.90;;;;;;4979167;28;20026;-87
2021/11/29 09:37:45;;;;;;;16.88;3.47;;;3.50;99.90;;;;;;4995584;28;20026;-86
2021/11/29 09:40:17;;;;;;;8.70;2.90;;;3.60;99.90;;;;;;4979026;28;20110;-87
2021/11/29 09:42:43;;;;;;;6.60;2.47;;;3.50;99.90;;;;;;4978844;28;20115;-87
2021/11/29 09:45:11;;;;;;;5.73;2.27;;;3.50;99.90;;;;;;4979107;28;20096;-88
2021/11/29 09:47:37;;;;;;;8.75;2.40;;;3.50;99.90;;;;;;4980471;28;20025;-87
2021/11/29 09:50:05;;;;;;;6.00;2.30;;;3.50;99.90;;;;;;4999021;28;20510;-87
2021/11/29 09:52:31;;;;;;;6.40;2.50;;;3.50;99.90;;;;;;4998815;28;20037;-87
2021/11/29 09:54:57;;;;;;;11.80;3.10;;;3.50;99.90;;;;;;4982659;28;20403;-87
2021/11/29 09:57:23;;;;;;;9.23;2.60;;;3.50;99.90;;;;;;4982708;28;20029;-87
2021/11/29 09:59:49;;;;;;;8.20;2.60;;;3.50;99.90;;;;;;4982584;28;20505;-88
2021/11/29 10:02:15;;;;;;;6.20;2.60;;;3.50;99.90;;;;;;4998440;28;20122;-90
2021/11/29 10:04:49;;;;;;;7.87;2.53;;;3.60;99.90;;;;;;4982590;28;20029;-87
2021/11/29 10:07:45;;;;;;;8.63;2.80;;;3.60;99.90;;;;;;4982641;28;20030;-87
2021/11/29 10:10:17;;;;;;;6.57;2.60;;;3.60;99.90;;;;;;4982416;28;20030;-86
2021/11/29 10:12:45;;;;;;;8.10;2.43;;;3.60;99.90;;;;;;4982207;28;20033;-87
2021/11/29 10:15:22;;;;;;;5.80;2.40;;;3.70;99.90;;;;;;4998519;28;20561;-86
2021/11/29 10:17:59;;;;;;;7.33;2.80;;;3.70;99.90;;;;;;4982528;28;20096;-88
2021/11/29 10:20:27;;;;;;;4.50;2.40;;;3.70;99.90;;;;;;4983173;28;20108;-87
2021/11/29 10:22:58;;;;;;;6.53;2.57;;;3.80;99.90;;;;;;4982498;28;20033;-87
2021/11/29 10:25:24;;;;;;;8.53;3.10;;;3.80;99.90;;;;;;4998950;28;20471;-86
2021/11/29 10:27:50;;;;;;;6.40;2.50;;;3.90;99.90;;;;;;4982395;28;20033;-88
2021/11/29 10:30:18;;;;;;;8.43;2.50;;;3.90;99.90;;;;;;4999103;28;20526;-86
2021/11/29 10:32:48;;;;;;;7.03;2.90;;;3.90;99.90;;;;;;4999104;28;20038;-87
2021/11/29 10:35:30;;;;;;;6.70;3.30;;;3.90;99.90;;;;;;4998920;28;20128;-86
2021/11/29 10:37:57;;;;;;;11.77;3.53;;;3.90;99.90;;;;;;4998379;28;20038;-85
2021/11/29 10:40:23;;;;;;;12.83;3.43;;;3.90;99.90;;;;;;4998830;28;20091;-86
2021/11/29 10:42:49;;;;;;;7.73;3.00;;;4.00;99.90;;;;;;5015590;28;20018;-86
2021/11/29 10:45:24;;;;;;;7.07;3.30;;;4.10;99.90;;;;;;4982744;28;20022;-85
2021/11/29 10:47:53;;;;;;;12.60;3.40;;;4.10;99.90;;;;;;4998268;28;20398;-89
2021/11/29 10:50:28;;;;;;;7.75;3.50;;;4.10;99.90;;;;;;4982419;28;20096;-85
2021/11/29 10:53:14;;;;;;;9.70;3.90;;;4.10;99.90;;;;;;4999637;28;20052;-85
2021/11/29 10:55:59;;;;;;;8.43;3.30;;;4.10;99.90;;;;;;4984376;28;20402;-86
2021/11/29 10:58:28;;;;;;;8.63;2.80;;;4.10;99.90;;;;;;4984260;28;20384;-86
2021/11/29 11:00:55;;;;;;;7.60;3.47;;;4.10;99.90;;;;;;4982299;28;20119;-85
2021/11/29 11:03:21;;;;;;;10.57;3.47;;;4.10;99.90;;;;;;4982267;28;20026;-86
2021/11/29 11:06:02;;;;;;;12.93;4.90;;;4.10;99.90;;;;;;4999490;28;20032;-87
2021/11/29 11:08:36;;;;;;;9.37;3.40;;;4.20;99.90;;;;;;5007436;28;20041;-86
2021/11/29 11:11:30;;;;;;;13.17;3.40;;;4.20;99.90;;;;;;4990903;28;20057;-85
2021/11/29 11:13:58;;;;;;;6.97;2.50;;;4.30;99.90;;;;;;5025791;28;20042;-85
2021/11/29 11:16:39;;;;;;;5.30;2.30;;;4.20;99.90;;;;;;5005136;28;20040;-88
2021/11/29 11:19:05;;;;;;;7.97;2.93;;;4.30;99.90;;;;;;4996812;28;20072;-85
2021/11/29 11:21:34;;;;;;;6.20;2.80;;;4.30;99.90;;;;;;4988734;28;20038;-86
2021/11/29 11:24:28;;;;;;;5.85;2.95;;;4.30;99.90;;;;;;5004159;28;20092;-86
2021/11/29 11:26:56;;;;;;;7.63;2.80;;;4.30;99.90;;;;;;4997391;28;20061;-86
2021/11/29 11:29:48;;;;;;;6.57;2.80;;;4.40;99.90;;;;;;5003659;28;20054;-86
2021/11/29 11:32:19;;;;;;;6.70;2.30;;;4.30;99.90;;;;;;4990139;28;20038;-86
2021/11/29 11:34:48;;;;;;;7.57;2.40;;;4.40;99.90;;;;;;5005030;28;20034;-84
2021/11/29 11:37:16;;;;;;;6.80;2.28;;;4.40;99.90;;;;;;5023890;28;20386;-88
2021/11/29 11:39:42;;;;;;;5.97;2.23;;;4.40;99.90;;;;;;5002739;28;20038;-85
2021/11/29 11:42:08;;;;;;;8.67;2.70;;;4.40;99.90;;;;;;5004988;28;20029;-86
2021/11/29 11:44:39;;;;;;;6.50;2.57;;;4.40;99.90;;;;;;5004370;28;20033;-86
2021/11/29 11:47:06;;;;;;;7.60;3.47;;;4.40;99.90;;;;;;5004175;28;20041;-85
2021/11/29 11:49:38;;;;;;;16.00;3.63;;;4.40;99.90;;;;;;4996861;28;20066;-86
2021/11/29 11:52:12;;;;;;;8.83;2.70;;;4.50;99.90;;;;;;4995454;28;20038;-86
2021/11/29 11:54:40;;;;;;;8.73;3.10;;;4.50;99.90;;;;;;4995407;28;20080;-86
2021/11/29 11:57:12;;;;;;;8.60;2.90;;;4.50;99.90;;;;;;4995405;28;20320;-86
2021/11/29 12:00:08;;;;;;;6.67;3.20;;;4.60;99.90;;;;;;5012321;28;20041;-86
2021/11/29 12:03:01;;;;;;;8.00;2.87;;;4.60;99.90;;;;;;4995414;28;20137;-86
2021/11/29 12:05:28;;;;;;;6.93;3.17;;;4.70;99.90;;;;;;4996578;28;20080;-87
2021/11/29 12:07:54;;;;;;;8.93;3.00;;;4.70;99.90;;;;;;4997323;28;20037;-87
2021/11/29 12:10:36;;;;;;;5.63;3.33;;;4.80;99.90;;;;;;5013427;28;20501;-86
2021/11/29 12:13:03;;;;;;;8.47;3.47;;;4.80;99.90;;;;;;4998215;28;20033;-86
2021/11/29 12:15:38;;;;;;;9.50;4.20;;;4.80;99.90;;;;;;4997901;28;20033;-88
2021/11/29 12:18:04;;;;;;;8.07;3.43;;;4.80;99.90;;;;;;5012826;28;20482;-86
2021/11/29 12:20:29;;;;;;;11.80;4.00;;;4.80;99.90;;;;;;4997516;28;20116;-86
2021/11/29 12:22:55;;;;;;;7.97;3.83;;;4.90;99.90;;;;;;4997453;28;20033;-86
2021/11/29 12:25:24;;;;;;;6.87;3.33;;;4.90;99.90;;;;;;5014146;28;20025;-86
2021/11/29 12:28:04;;;;;;;13.75;4.55;;;5.00;99.90;;;;;;5013434;28;20111;-87
2021/11/29 12:30:35;;;;;;;9.27;4.63;;;5.00;99.90;;;;;;5013953;28;20031;-86
2021/11/29 12:33:03;;;;;;;9.70;5.03;;;5.00;99.90;;;;;;4997189;28;20072;-86
2021/11/29 12:35:32;;;;;;;8.27;4.40;;;5.00;99.90;;;;;;4997945;28;20087;-87
2021/11/29 12:38:20;;;;;;;10.82;4.13;;;5.00;99.90;;;;;;5013296;28;20494;-88
2021/11/29 12:40:50;;;;;;;9.47;4.30;;;5.00;99.90;;;;;;4997301;28;20124;-86
2021/11/29 12:43:36;;;;;;;10.60;4.33;;;5.00;99.90;;;;;;5013969;28;20029;-88
2021/11/29 12:46:21;;;;;;;8.57;4.40;;;4.90;99.90;;;;;;4997837;28;20032;-88
2021/11/29 12:48:47;;;;;;;11.07;4.17;;;4.90;99.90;;;;;;5011243;28;20113;-88
2021/11/29 12:51:13;;;;;;;7.90;3.47;;;5.00;99.90;;;;;;5013188;28;20104;-88
2021/11/29 12:53:41;;;;;;;9.40;3.70;;;5.00;99.90;;;;;;4997859;28;20033;-88
2021/11/29 12:56:21;;;;;;;9.80;3.40;;;4.90;99.90;;;;;;5012318;28;20289;-88
2021/11/29 12:58:57;;;;;;;8.20;3.23;;;5.10;99.90;;;;;;5030598;28;20029;-87